createdAt,value
2018-09-11T00:00:27.007Z,24.85
2018-09-11T00:02:54.410Z,24.86
2018-09-11T00:05:22.395Z,24.82
2018-09-11T00:07:50.042Z,24.81
2018-09-11T00:10:17.707Z,24.80
2018-09-11T00:12:45.447Z,24.83
2018-09-11T00:15:13.031Z,24.82
2018-09-11T00:17:40.731Z,24.78
2018-09-11T00:20:07.869Z,24.76
2018-09-11T00:22:35.907Z,24.76
2018-09-11T00:25:03.727Z,24.75
2018-09-11T00:27:31.491Z,24.75
2018-09-11T00:29:59.142Z,24.75
2018-09-11T00:32:26.738Z,24.75
2018-09-11T00:34:54.467Z,24.75
2018-09-11T00:37:21.628Z,24.73
2018-09-11T00:39:49.435Z,24.73
2018-09-11T00:42:17.197Z,24.72
2018-09-11T00:44:44.943Z,24.70
2018-09-11T00:49:45.172Z,24.69
2018-09-11T00:52:12.727Z,24.68
2018-09-11T00:54:40.469Z,24.68
2018-09-11T00:57:08.019Z,24.67
2018-09-11T00:59:35.294Z,24.66
2018-09-11T01:02:02.895Z,24.63
2018-09-11T01:04:30.584Z,24.64
2018-09-11T01:06:58.571Z,24.64
2018-09-11T01:09:25.746Z,24.64
2018-09-11T01:11:53.526Z,24.61
2018-09-11T01:14:21.023Z,24.58
2018-09-11T01:16:48.951Z,24.60
2018-09-11T01:19:16.582Z,24.58
2018-09-11T01:21:44.059Z,24.60
2018-09-11T01:24:11.743Z,24.56
2018-09-11T01:26:39.447Z,24.55
2018-09-11T01:29:07.027Z,24.56
2018-09-11T01:31:34.791Z,24.56
2018-09-11T01:34:02.506Z,24.53
2018-09-11T01:36:30.193Z,24.53
2018-09-11T01:38:57.875Z,24.51
2018-09-11T01:41:25.728Z,24.50
2018-09-11T01:43:53.598Z,24.50
2018-09-11T01:46:21.265Z,24.51
2018-09-11T01:48:48.894Z,24.49
2018-09-11T01:51:16.026Z,24.50
2018-09-11T01:53:43.206Z,24.47
2018-09-11T01:56:10.835Z,24.45
2018-09-11T01:58:38.698Z,24.41
2018-09-11T02:01:06.339Z,24.47
2018-09-11T02:03:34.423Z,24.45
2018-09-11T02:06:02.006Z,24.46
2018-09-11T02:08:29.220Z,24.48
2018-09-11T02:10:56.894Z,24.45
2018-09-11T02:13:24.639Z,24.44
2018-09-11T02:15:51.907Z,24.42
2018-09-11T02:18:19.586Z,24.41
2018-09-11T02:20:47.072Z,24.37
2018-09-11T02:23:14.751Z,24.38
2018-09-11T02:25:42.567Z,24.35
2018-09-11T02:28:10.286Z,24.38
2018-09-11T02:30:37.888Z,24.35
2018-09-11T02:33:05.588Z,24.36
2018-09-11T02:35:33.340Z,24.35
2018-09-11T02:38:00.946Z,24.35
2018-09-11T02:40:28.734Z,24.35
2018-09-11T02:42:56.439Z,24.33
2018-09-11T02:45:24.015Z,24.32
2018-09-11T02:47:53.628Z,24.32
2018-09-11T02:50:21.294Z,24.31
2018-09-11T02:52:48.414Z,24.29
2018-09-11T02:55:16.390Z,24.30
2018-09-11T02:57:43.971Z,24.27
2018-09-11T03:00:11.679Z,24.28
2018-09-11T03:02:39.411Z,24.28
2018-09-11T03:05:07.071Z,24.27
2018-09-11T03:07:34.735Z,24.27
2018-09-11T03:10:02.579Z,24.25
2018-09-11T03:12:30.403Z,24.25
2018-09-11T03:14:58.298Z,24.23
2018-09-11T03:17:25.903Z,24.21
2018-09-11T03:19:53.682Z,24.21
2018-09-11T03:22:21.410Z,24.20
2018-09-11T03:24:49.026Z,24.21
2018-09-11T03:27:16.174Z,24.21
2018-09-11T03:30:00.033Z,24.21
2018-09-11T03:32:27.644Z,24.21
2018-09-11T03:34:55.579Z,24.19
2018-09-11T03:37:23.066Z,24.18
2018-09-11T03:39:50.827Z,24.18
2018-09-11T03:42:18.706Z,24.17
2018-09-11T03:44:46.460Z,24.16
2018-09-11T03:47:14.030Z,24.14
2018-09-11T03:49:41.387Z,24.12
2018-09-11T03:52:08.990Z,24.12
2018-09-11T03:54:36.780Z,24.13
2018-09-11T03:57:04.566Z,24.13
2018-09-11T03:59:32.199Z,24.12
2018-09-11T04:01:59.723Z,24.10
2018-09-11T04:04:27.563Z,24.07
2018-09-11T04:06:55.070Z,24.08
2018-09-11T04:09:22.875Z,24.09
2018-09-11T04:11:50.038Z,24.09
2018-09-11T04:14:17.293Z,24.09
2018-09-11T04:16:44.866Z,24.07
2018-09-11T04:19:12.569Z,24.06
2018-09-11T04:21:40.172Z,24.07
2018-09-11T04:24:07.771Z,24.07
2018-09-11T04:26:35.625Z,24.06
2018-09-11T04:29:03.299Z,24.02
2018-09-11T04:31:30.997Z,24.03
2018-09-11T04:33:58.742Z,24.05
2018-09-11T04:36:26.472Z,24.01
2018-09-11T04:38:54.015Z,24.00
2018-09-11T04:41:21.394Z,23.99
2018-09-11T04:43:49.386Z,23.96
2018-09-11T04:46:17.051Z,23.95
2018-09-11T04:48:45.478Z,23.93
2018-09-11T04:51:13.323Z,23.96
2018-09-11T04:53:41.058Z,23.92
2018-09-11T04:56:08.747Z,23.93
2018-09-11T04:58:36.903Z,23.92
2018-09-11T05:01:05.580Z,23.92
2018-09-11T05:03:33.338Z,23.92
2018-09-11T05:06:00.502Z,23.91
2018-09-11T05:08:28.134Z,23.90
2018-09-11T05:11:01.619Z,23.91
2018-09-11T05:13:47.618Z,23.90
2018-09-11T05:16:15.559Z,23.86
2018-09-11T05:18:43.179Z,23.87
2018-09-11T05:21:10.846Z,23.88
2018-09-11T05:23:38.566Z,23.87
2018-09-11T05:26:06.315Z,23.90
2018-09-11T05:28:33.915Z,23.90
2018-09-11T05:31:01.595Z,23.85
2018-09-11T05:33:29.293Z,23.88
2018-09-11T05:35:56.475Z,23.89
2018-09-11T05:38:24.032Z,23.85
2018-09-11T05:40:51.756Z,23.88
2018-09-11T05:43:19.718Z,23.83
2018-09-11T05:45:46.850Z,23.83
2018-09-11T05:48:14.576Z,23.86
2018-09-11T05:50:42.482Z,23.85
2018-09-11T05:53:10.030Z,23.85
2018-09-11T05:55:37.745Z,23.84
2018-09-11T05:58:05.475Z,23.86
2018-09-11T06:00:33.167Z,23.86
2018-09-11T06:03:00.896Z,23.84
2018-09-11T06:05:28.609Z,23.84
2018-09-11T06:07:56.394Z,23.85
2018-09-11T06:10:23.954Z,23.86
2018-09-11T06:12:51.582Z,23.92
2018-09-11T06:15:19.070Z,23.90
2018-09-11T06:18:51.746Z,23.94
2018-09-11T06:21:19.525Z,23.96
2018-09-11T06:23:47.300Z,23.93
2018-09-11T06:26:15.023Z,23.97
2018-09-11T06:28:42.290Z,23.86
2018-09-11T06:31:09.994Z,23.92
2018-09-11T06:33:37.687Z,23.89
2018-09-11T06:36:05.807Z,23.92
2018-09-11T06:38:33.570Z,23.91
2018-09-11T06:41:01.399Z,23.94
2018-09-11T06:43:29.571Z,23.93
2018-09-11T06:45:57.286Z,23.99
2018-09-11T06:48:24.967Z,23.98
2018-09-11T06:50:52.874Z,24.00
2018-09-11T06:53:20.731Z,23.98
2018-09-11T06:55:48.570Z,24.01
2018-09-11T06:58:16.154Z,24.03
2018-09-11T07:00:43.489Z,24.09
2018-09-11T07:03:11.291Z,24.04
2018-09-11T07:05:38.911Z,24.03
2018-09-11T07:08:06.754Z,24.08
2018-09-11T07:10:34.526Z,24.09
2018-09-11T07:13:02.177Z,24.11
2018-09-11T07:15:30.359Z,24.12
2018-09-11T07:17:58.346Z,24.15
2018-09-11T07:20:26.026Z,24.16
2018-09-11T07:22:53.733Z,24.03
2018-09-11T07:25:21.366Z,24.09
2018-09-11T07:27:49.221Z,24.19
2018-09-11T07:30:16.875Z,24.20
2018-09-11T07:32:44.574Z,24.21
2018-09-11T07:35:12.450Z,24.23
2018-09-11T07:37:40.213Z,24.25
2018-09-11T07:40:08.051Z,24.27
2018-09-11T07:42:35.346Z,24.29
2018-09-11T07:45:03.202Z,24.31
2018-09-11T07:47:31.036Z,24.33
2018-09-11T07:49:58.718Z,24.37
2018-09-11T07:52:26.372Z,24.36
2018-09-11T07:54:53.983Z,24.37
2018-09-11T07:57:21.731Z,24.39
2018-09-11T07:59:49.532Z,24.40
2018-09-11T08:02:17.387Z,24.42
2018-09-11T08:04:44.987Z,24.45
2018-09-11T08:07:12.759Z,24.46
2018-09-11T08:09:40.742Z,24.46
2018-09-11T08:12:08.534Z,24.52
2018-09-11T08:14:36.383Z,24.48
2018-09-11T08:17:04.374Z,24.53
2018-09-11T08:20:55.799Z,24.58
2018-09-11T08:23:23.554Z,24.59
2018-09-11T08:25:51.170Z,24.65
2018-09-11T08:28:19.027Z,24.67
2018-09-11T08:30:46.196Z,24.68
2018-09-11T08:33:13.726Z,24.70
2018-09-11T08:35:41.438Z,24.69
2018-09-11T08:38:09.026Z,24.72
2018-09-11T08:40:36.624Z,24.73
2018-09-11T08:43:05.047Z,24.76
2018-09-11T08:45:32.735Z,24.77
2018-09-11T08:48:00.459Z,24.78
2018-09-11T08:50:28.071Z,24.80
2018-09-11T08:52:55.915Z,24.83
2018-09-11T08:55:23.188Z,24.84
2018-09-11T08:57:50.891Z,24.87
2018-09-11T09:00:18.575Z,24.87
2018-09-11T09:02:45.766Z,24.89
2018-09-11T09:05:13.491Z,24.91
2018-09-11T09:07:41.295Z,24.90
2018-09-11T09:10:08.966Z,24.92
2018-09-11T09:12:36.578Z,24.95
2018-09-11T09:15:04.203Z,24.96
2018-09-11T09:17:31.911Z,24.95
2018-09-11T09:19:59.581Z,24.97
2018-09-11T09:22:26.730Z,24.99
2018-09-11T09:24:54.506Z,25.00
2018-09-11T09:27:22.204Z,25.00
2018-09-11T09:29:49.992Z,25.02
2018-09-11T09:32:17.966Z,25.05
2018-09-11T09:34:45.595Z,25.06
2018-09-11T09:37:13.306Z,25.06
2018-09-11T09:39:40.458Z,25.08
2018-09-11T09:42:08.062Z,25.09
2018-09-11T09:44:35.363Z,25.08
2018-09-11T09:47:03.002Z,25.12
2018-09-11T09:49:30.744Z,25.13
2018-09-11T09:51:58.567Z,25.13
2018-09-11T09:54:26.498Z,25.15
2018-09-11T09:56:54.052Z,25.17
2018-09-11T09:59:21.439Z,25.19
2018-09-11T10:01:54.978Z,25.21
2018-09-11T10:04:22.743Z,25.20
2018-09-11T10:06:50.499Z,25.22
2018-09-11T10:09:18.582Z,25.22
2018-09-11T10:11:46.322Z,25.23
2018-09-11T10:14:13.882Z,25.26
2018-09-11T10:16:41.579Z,25.27
2018-09-11T10:19:09.303Z,25.28
2018-09-11T10:21:36.906Z,25.28
2018-09-11T10:24:04.976Z,25.30
2018-09-11T10:26:32.737Z,25.31
2018-09-11T10:29:00.491Z,25.33
2018-09-11T10:31:28.208Z,25.33
2018-09-11T10:33:55.818Z,25.34
2018-09-11T10:36:23.507Z,25.35
2018-09-11T10:38:50.595Z,25.37
2018-09-11T10:41:18.308Z,25.38
2018-09-11T10:43:45.884Z,25.40
2018-09-11T10:46:13.798Z,25.40
2018-09-11T10:48:41.547Z,25.41
2018-09-11T10:51:09.078Z,25.44
2018-09-11T10:53:36.828Z,25.43
2018-09-11T10:56:04.587Z,25.41
2018-09-11T10:58:32.347Z,25.45
2018-09-11T11:00:59.947Z,25.47
2018-09-11T11:03:27.575Z,25.49
2018-09-11T11:05:55.366Z,25.50
2018-09-11T11:08:22.994Z,25.51
2018-09-11T11:10:50.951Z,25.53
2018-09-11T11:13:18.498Z,25.54
2018-09-11T11:15:46.170Z,25.56
2018-09-11T11:18:13.966Z,25.55
2018-09-11T11:20:41.657Z,25.52
2018-09-11T11:23:09.074Z,25.59
2018-09-11T11:25:36.753Z,25.59
2018-09-11T11:28:04.551Z,25.62
2018-09-11T11:30:32.193Z,25.62
2018-09-11T11:32:59.738Z,25.62
2018-09-11T11:35:27.587Z,25.62
2018-09-11T11:37:55.418Z,25.64
2018-09-11T11:40:23.177Z,25.65
2018-09-11T11:42:51.019Z,25.66
2018-09-11T11:45:19.572Z,25.67
2018-09-11T11:47:47.350Z,25.68
2018-09-11T11:50:15.071Z,25.69
2018-09-11T11:52:42.862Z,25.70
2018-09-11T11:55:10.700Z,25.72
2018-09-11T11:57:37.674Z,25.71
2018-09-11T12:00:05.435Z,25.73
2018-09-11T12:02:33.467Z,25.75
2018-09-11T12:05:01.101Z,25.75
2018-09-11T12:07:28.862Z,25.73
2018-09-11T12:09:56.842Z,25.77
2018-09-11T12:12:24.589Z,25.75
2018-09-11T12:14:52.307Z,25.77
2018-09-11T12:17:19.999Z,25.79
2018-09-11T12:19:47.654Z,25.81
2018-09-11T12:22:15.408Z,25.81
2018-09-11T12:24:43.013Z,25.82
2018-09-11T12:27:10.771Z,25.83
2018-09-11T12:29:37.965Z,25.82
2018-09-11T12:32:05.183Z,25.80
2018-09-11T12:34:33.043Z,25.86
2018-09-11T12:37:00.740Z,25.84
2018-09-11T12:39:28.619Z,25.86
2018-09-11T12:41:56.306Z,25.88
2018-09-11T12:44:23.899Z,25.89
2018-09-11T12:46:51.738Z,25.87
2018-09-11T12:49:19.519Z,25.89
2018-09-11T12:51:47.231Z,25.91
2018-09-11T12:54:14.919Z,25.92
2018-09-11T12:56:42.481Z,25.91
2018-09-11T12:59:10.071Z,25.92
2018-09-11T13:01:37.890Z,25.93
2018-09-11T13:04:05.800Z,25.93
2018-09-11T13:06:33.928Z,25.94
2018-09-11T13:09:01.626Z,25.94
2018-09-11T13:11:29.306Z,25.95
2018-09-11T13:13:56.912Z,25.96
2018-09-11T13:16:24.590Z,25.96
2018-09-11T13:18:52.579Z,25.99
2018-09-11T13:21:20.495Z,25.98
2018-09-11T13:23:48.035Z,26.00
2018-09-11T13:26:15.676Z,26.00
2018-09-11T13:28:43.786Z,26.02
2018-09-11T13:31:10.986Z,26.02
2018-09-11T13:33:38.809Z,26.04
2018-09-11T13:36:06.579Z,26.05
2018-09-11T13:38:34.183Z,26.06
2018-09-11T13:41:01.887Z,26.06
2018-09-11T13:43:29.592Z,26.07
2018-09-11T13:45:57.266Z,26.04
2018-09-11T13:48:24.959Z,25.90
2018-09-11T13:50:52.714Z,26.09
2018-09-11T13:53:19.942Z,26.09
2018-09-11T13:55:47.595Z,26.11
2018-09-11T13:58:15.191Z,26.11
2018-09-11T14:00:42.919Z,26.12
2018-09-11T14:03:10.031Z,26.13
2018-09-11T14:05:37.743Z,26.13
2018-09-11T14:08:06.407Z,26.15
2018-09-11T14:10:34.197Z,26.16
2018-09-11T14:13:01.876Z,26.17
2018-09-11T14:15:29.583Z,26.18
2018-09-11T14:17:57.520Z,26.18
2018-09-11T14:20:25.045Z,26.19
2018-09-11T14:22:52.755Z,26.21
2018-09-11T14:25:20.576Z,26.22
2018-09-11T14:27:48.382Z,26.23
2018-09-11T14:30:15.554Z,26.25
2018-09-11T14:32:43.541Z,26.21
2018-09-11T14:35:11.426Z,26.28
2018-09-11T14:37:38.654Z,26.27
2018-09-11T14:40:06.313Z,26.28
2018-09-11T14:42:33.987Z,26.28
2018-09-11T14:45:01.751Z,26.23
2018-09-11T14:47:35.575Z,26.32
2018-09-11T14:50:05.386Z,26.33
2018-09-11T14:52:33.247Z,26.32
2018-09-11T14:55:00.822Z,26.34
2018-09-11T14:57:28.799Z,26.34
2018-09-11T14:59:55.870Z,26.34
2018-09-11T15:02:23.603Z,26.33
2018-09-11T15:04:51.431Z,26.34
2018-09-11T15:07:19.010Z,26.35
2018-09-11T15:09:46.846Z,26.36
2018-09-11T15:12:14.591Z,26.36
2018-09-11T15:14:42.390Z,26.36
2018-09-11T15:17:10.044Z,26.37
2018-09-11T15:19:37.750Z,26.37
2018-09-11T15:22:05.641Z,26.37
2018-09-11T15:24:33.407Z,26.39
2018-09-11T15:27:01.007Z,26.39
2018-09-11T15:29:28.730Z,26.39
2018-09-11T15:31:56.463Z,26.40
2018-09-11T15:34:24.031Z,26.41
2018-09-11T15:36:51.734Z,26.42
2018-09-11T15:39:19.479Z,26.41
2018-09-11T15:41:47.063Z,26.41
2018-09-11T15:44:15.063Z,26.42
2018-09-11T15:46:42.726Z,26.43
2018-09-11T15:49:10.789Z,26.43
2018-09-11T15:51:38.539Z,26.45
2018-09-11T15:54:06.583Z,26.46
2018-09-11T15:56:34.371Z,26.46
2018-09-11T15:59:02.047Z,26.45
2018-09-11T16:01:29.860Z,26.45
2018-09-11T16:03:57.823Z,26.46
2018-09-11T16:06:24.975Z,26.45
2018-09-11T16:08:52.667Z,26.47
2018-09-11T16:11:20.311Z,26.44
2018-09-11T16:13:48.171Z,26.46
2018-09-11T16:16:15.755Z,26.46
2018-09-11T16:18:43.614Z,26.46
2018-09-11T16:21:11.543Z,26.46
2018-09-11T16:23:39.307Z,26.45
2018-09-11T16:26:07.030Z,26.47
2018-09-11T16:28:34.219Z,26.46
2018-09-11T16:31:01.860Z,26.46
2018-09-11T16:33:29.866Z,26.47
2018-09-11T16:35:57.600Z,26.45
2018-09-11T16:38:25.339Z,26.46
2018-09-11T16:40:53.056Z,26.45
2018-09-11T16:43:20.732Z,26.47
2018-09-11T16:45:48.571Z,26.46
2018-09-11T16:48:16.607Z,26.46
2018-09-11T16:50:44.417Z,26.48
2018-09-11T16:53:12.075Z,26.47
2018-09-11T16:55:39.741Z,26.47
2018-09-11T16:58:06.974Z,26.47
2018-09-11T17:00:34.342Z,26.47
2018-09-11T17:03:01.947Z,26.46
2018-09-11T17:05:29.682Z,26.35
2018-09-11T17:07:57.518Z,26.46
2018-09-11T17:10:25.407Z,26.46
2018-09-11T17:12:53.436Z,26.47
2018-09-11T17:15:21.816Z,26.47
2018-09-11T17:17:49.748Z,26.45
2018-09-11T17:20:17.633Z,26.45
2018-09-11T17:22:45.200Z,26.44
2018-09-11T17:25:12.509Z,26.41
2018-09-11T17:27:40.559Z,26.39
2018-09-11T17:30:08.071Z,26.38
2018-09-11T17:32:35.380Z,26.39
2018-09-11T17:35:03.030Z,26.37
2018-09-11T17:37:32.050Z,26.35
2018-09-11T17:39:59.791Z,26.33
2018-09-11T17:42:27.538Z,26.31
2018-09-11T17:44:55.308Z,26.28
2018-09-11T17:47:28.781Z,26.25
2018-09-11T17:49:57.051Z,26.23
2018-09-11T17:52:24.779Z,26.20
2018-09-11T17:54:52.507Z,26.17
2018-09-11T17:57:20.991Z,26.13
2018-09-11T17:59:48.640Z,26.09
2018-09-11T18:02:16.552Z,26.13
2018-09-11T18:04:44.479Z,26.02
2018-09-11T18:07:12.299Z,26.07
2018-09-11T18:09:40.007Z,26.17
2018-09-11T18:12:07.986Z,26.21
2018-09-11T18:14:35.790Z,26.14
2018-09-11T18:17:03.847Z,26.24
2018-09-11T18:19:31.607Z,26.21
2018-09-11T18:21:59.483Z,26.20
2018-09-11T18:24:27.180Z,26.19
2018-09-11T18:26:54.870Z,26.18
2018-09-11T18:29:23.872Z,26.18
2018-09-11T18:31:51.862Z,26.17
2018-09-11T18:34:19.582Z,26.13
2018-09-11T18:36:47.340Z,26.15
2018-09-11T18:39:14.891Z,26.15
2018-09-11T18:41:43.707Z,26.16
2018-09-11T18:44:11.475Z,26.18
2018-09-11T18:46:39.787Z,26.19
2018-09-11T18:49:08.320Z,26.19
2018-09-11T18:51:35.976Z,26.19
2018-09-11T18:54:03.669Z,26.18
2018-09-11T18:56:31.342Z,26.19
2018-09-11T18:58:59.051Z,26.18
2018-09-11T19:01:27.003Z,26.17
2018-09-11T19:05:50.840Z,26.11
2018-09-11T19:08:18.595Z,26.20
2018-09-11T19:10:46.068Z,26.18
2018-09-11T19:13:13.900Z,26.13
2018-09-11T19:15:41.595Z,26.15
2018-09-11T19:18:09.298Z,26.13
2018-09-11T19:20:37.012Z,26.15
2018-09-11T19:23:04.738Z,26.10
2018-09-11T19:25:32.495Z,26.06
2018-09-11T19:28:00.290Z,26.03
2018-09-11T19:30:27.926Z,26.01
2018-09-11T19:32:55.659Z,25.99
2018-09-11T19:35:23.296Z,25.96
2018-09-11T19:37:51.543Z,25.99
2018-09-11T19:40:20.835Z,26.00
2018-09-11T19:42:48.023Z,25.99
2018-09-11T19:45:15.827Z,26.00
2018-09-11T19:47:43.578Z,25.99
2018-09-11T19:50:11.409Z,26.01
2018-09-11T19:52:38.598Z,26.01
2018-09-11T19:55:07.049Z,26.00
2018-09-11T19:57:34.755Z,26.02
2018-09-11T20:00:02.540Z,25.97
2018-09-11T20:02:30.039Z,25.99
2018-09-11T20:04:57.813Z,25.98
2018-09-11T20:07:25.527Z,25.95
2018-09-11T20:09:53.459Z,25.90
2018-09-11T20:12:21.007Z,25.92
2018-09-11T20:17:44.411Z,25.94
2018-09-11T20:20:12.062Z,25.93
2018-09-11T20:22:39.731Z,25.95
2018-09-11T20:25:07.475Z,25.93
2018-09-11T20:27:35.039Z,25.94
2018-09-11T20:30:02.994Z,25.93
2018-09-11T20:32:30.788Z,25.93
2018-09-11T20:34:58.555Z,25.92
2018-09-11T20:37:26.176Z,25.93
2018-09-11T20:39:53.910Z,25.92
2018-09-11T20:42:21.719Z,25.92
2018-09-11T20:44:49.532Z,25.86
2018-09-11T20:47:17.055Z,25.89
2018-09-11T20:49:44.867Z,25.88
2018-09-11T20:52:12.567Z,25.89
2018-09-11T20:54:40.310Z,25.87
2018-09-11T20:57:07.827Z,25.87
2018-09-11T20:59:35.570Z,25.85
2018-09-11T21:02:03.164Z,25.86
2018-09-11T21:04:30.735Z,25.85
2018-09-11T21:06:58.567Z,25.84
2018-09-11T21:09:25.735Z,25.85
2018-09-11T21:11:53.569Z,25.86
2018-09-11T21:14:21.290Z,25.85
2018-09-11T21:16:48.677Z,25.85
2018-09-11T21:19:16.499Z,25.83
2018-09-11T21:21:44.210Z,25.83
2018-09-11T21:24:11.927Z,25.84
2018-09-11T21:26:39.567Z,25.81
2018-09-11T21:29:07.294Z,25.80
2018-09-11T21:31:35.033Z,25.79
2018-09-11T21:34:02.743Z,25.77
2018-09-11T21:36:30.487Z,25.78
2018-09-11T21:38:58.575Z,25.81
2018-09-11T21:41:26.064Z,25.77
2018-09-11T21:43:53.739Z,25.80
2018-09-11T21:46:21.490Z,25.79
2018-09-11T21:48:49.052Z,25.76
2018-09-11T21:51:16.902Z,25.71
2018-09-11T21:53:44.579Z,25.68
2018-09-11T21:56:12.438Z,25.62
2018-09-11T21:58:40.015Z,25.51
2018-09-11T22:01:13.645Z,25.43
2018-09-11T22:03:41.407Z,25.37
2018-09-11T22:06:09.035Z,25.38
2018-09-11T22:08:36.727Z,25.29
2018-09-11T22:11:03.955Z,25.17
2018-09-11T22:13:31.739Z,25.14
2018-09-11T22:15:59.579Z,25.09
2018-09-11T22:18:27.062Z,25.02
2018-09-11T22:20:54.858Z,24.86
2018-09-11T22:23:22.576Z,24.80
2018-09-11T22:25:50.415Z,24.78
2018-09-11T22:28:18.015Z,24.66
2018-09-11T22:30:45.643Z,24.72
2018-09-11T22:33:13.304Z,24.59
2018-09-11T22:35:41.405Z,24.47
2018-09-11T22:38:09.002Z,24.58
2018-09-11T22:40:36.463Z,24.52
2018-09-11T22:43:04.617Z,24.31
2018-09-11T22:45:32.291Z,24.34
2018-09-11T22:47:59.999Z,24.31
2018-09-11T22:50:28.461Z,24.20
2018-09-11T22:52:56.307Z,24.18
2018-09-11T22:55:23.916Z,24.18
2018-09-11T22:57:51.792Z,24.19
2018-09-11T23:00:19.531Z,24.13
2018-09-11T23:02:47.403Z,24.08
2018-09-11T23:05:15.041Z,24.03
2018-09-11T23:07:42.795Z,23.94
2018-09-11T23:10:10.539Z,23.90
2018-09-11T23:12:38.106Z,23.85
2018-09-11T23:15:06.398Z,23.97
2018-09-11T23:17:34.398Z,23.89
2018-09-11T23:20:02.530Z,23.75
2018-09-11T23:22:30.160Z,23.61
2018-09-11T23:24:57.723Z,23.66
2018-09-11T23:27:25.655Z,23.52
2018-09-11T23:29:52.729Z,23.59
2018-09-11T23:32:20.455Z,23.48
2018-09-11T23:34:48.025Z,23.48
2018-09-11T23:37:15.882Z,23.46
2018-09-11T23:39:43.679Z,23.27
2018-09-11T23:42:11.422Z,23.41
2018-09-11T23:44:39.010Z,23.35
2018-09-11T23:47:06.735Z,23.29
2018-09-11T23:49:34.680Z,23.25
2018-09-11T23:52:02.456Z,23.15
2018-09-11T23:54:30.033Z,23.09
2018-09-11T23:56:57.734Z,23.27
2018-09-11T23:59:25.531Z,23.15
